Time;durP1;ratioP1;P1;durP2;ratioP2;P2;SDS_P1;SDS_P2;PMS_P1;PMS_P2;Temp;Humidity;BMP_temperature;BMP_pressure;BME280_temperature;BME280_humidity;BME280_pressure;Samples;Min_cycle;Max_cycle;Signal;HPM_P1;HPM_P2
2022/04/21 00:00:36;;;;;;;6.28;5.65;;;14.90;1.00;;;;;;5055039;28;20527;-83
2022/04/21 00:03:02;;;;;;;7.22;5.88;;;14.90;1.00;;;;;;5053789;28;20017;-84
2022/04/21 00:05:28;;;;;;;6.40;5.90;;;14.90;1.00;;;;;;5058547;28;20032;-83
2022/04/21 00:07:54;;;;;;;6.72;5.70;;;14.90;1.00;;;;;;5054955;28;20040;-83
2022/04/21 00:10:21;;;;;;;6.47;5.88;;;14.90;1.00;;;;;;5054734;28;20061;-83
2022/04/21 00:12:47;;;;;;;7.15;6.45;;;14.90;1.00;;;;;;5056117;28;20102;-83
2022/04/21 00:15:13;;;;;;;6.95;6.25;;;14.90;1.00;;;;;;5052401;28;20045;-83
2022/04/21 00:17:39;;;;;;;7.00;6.40;;;15.00;1.00;;;;;;5058037;28;20083;-83
2022/04/21 00:20:06;;;;;;;6.75;6.20;;;15.00;1.00;;;;;;5054455;28;20033;-83
2022/04/21 00:25:16;;;;;;;7.25;6.60;;;15.10;1.00;;;;;;5056376;28;20560;-83
2022/04/21 00:27:43;;;;;;;7.68;6.93;;;15.20;1.00;;;;;;5055173;28;20083;-83
2022/04/21 00:30:10;;;;;;;6.93;6.32;;;15.10;1.00;;;;;;5052252;28;20029;-83
2022/04/21 00:32:37;;;;;;;7.00;6.40;;;14.90;1.00;;;;;;5058115;28;20047;-83
2022/04/21 00:35:04;;;;;;;6.97;6.13;;;14.90;1.00;;;;;;5055910;28;20403;-83
2022/04/21 00:37:30;;;;;;;6.63;6.03;;;15.00;1.00;;;;;;5055746;28;20072;-83
2022/04/21 00:39:56;;;;;;;6.32;5.68;;;15.20;1.00;;;;;;5055676;28;20048;-83
2022/04/21 00:42:22;;;;;;;6.05;5.55;;;15.10;1.00;;;;;;5052184;28;20036;-83
2022/04/21 00:44:49;;;;;;;6.03;5.45;;;15.00;1.00;;;;;;5056473;28;20078;-83
2022/04/21 00:47:17;;;;;;;5.85;5.15;;;14.90;1.00;;;;;;5054778;28;20036;-83
2022/04/21 00:49:43;;;;;;;8.40;5.82;;;14.90;1.00;;;;;;5054513;28;20025;-83
2022/04/21 00:52:09;;;;;;;6.18;5.53;;;14.80;1.00;;;;;;5055568;28;20037;-83
2022/04/21 00:54:35;;;;;;;6.05;5.55;;;14.80;1.00;;;;;;5053610;28;20075;-83
2022/04/21 00:57:02;;;;;;;6.40;5.80;;;14.80;1.00;;;;;;5052702;28;20413;-83
2022/04/21 00:59:28;;;;;;;7.05;5.82;;;14.80;1.00;;;;;;5057129;28;20044;-84
2022/04/21 01:04:41;;;;;;;6.05;5.55;;;14.70;1.00;;;;;;5054472;28;20043;-83
2022/04/21 01:07:10;;;;;;;6.05;5.45;;;14.70;1.00;;;;;;5055357;28;20023;-83
2022/04/21 01:09:37;;;;;;;5.95;5.45;;;14.70;1.00;;;;;;5053329;28;20424;-83
2022/04/21 01:12:10;;;;;;;6.07;5.43;;;14.80;1.00;;;;;;5052461;28;20035;-84
2022/04/21 01:14:37;;;;;;;10.05;5.88;;;14.80;1.00;;;;;;5057116;28;20032;-83
2022/04/21 01:17:06;;;;;;;6.40;5.80;;;14.90;1.00;;;;;;5054357;28;20050;-83
2022/04/21 01:19:33;;;;;;;7.05;5.45;;;14.90;1.00;;;;;;5054710;28;20028;-83
2022/04/21 01:21:59;;;;;;;6.15;5.63;;;14.90;1.00;;;;;;5054724;28;20142;-83
2022/04/21 01:24:25;;;;;;;6.35;5.75;;;15.00;1.00;;;;;;5050233;28;20104;-83
2022/04/21 01:26:50;;;;;;;7.70;5.50;;;15.00;1.00;;;;;;5054973;28;20025;-83
2022/04/21 01:29:17;;;;;;;5.93;5.32;;;15.00;1.00;;;;;;5054031;28;20017;-84
2022/04/21 01:31:43;;;;;;;5.20;4.80;;;15.10;1.00;;;;;;5055368;28;20029;-84
2022/04/21 01:34:09;;;;;;;5.18;4.68;;;15.10;1.00;;;;;;5053960;28;20107;-83
2022/04/21 01:36:35;;;;;;;5.60;5.10;;;15.10;1.00;;;;;;5053121;28;20037;-83
2022/04/21 01:41:44;;;;;;;6.25;4.97;;;15.00;1.00;;;;;;5064800;28;20380;-83
2022/04/21 01:44:10;;;;;;;5.53;5.00;;;15.00;1.00;;;;;;5055295;28;20033;-84
2022/04/21 01:46:36;;;;;;;6.65;5.47;;;15.00;1.00;;;;;;5054423;28;20025;-83
2022/04/21 01:49:01;;;;;;;5.20;4.75;;;14.90;1.00;;;;;;5054110;28;20031;-83
2022/04/21 01:51:27;;;;;;;5.10;4.60;;;14.90;1.00;;;;;;5052008;28;20029;-83
2022/04/21 01:53:53;;;;;;;5.30;4.80;;;14.90;1.00;;;;;;5054296;28;20028;-83
2022/04/21 01:56:18;;;;;;;5.40;4.90;;;14.80;1.00;;;;;;5055374;28;20096;-83
2022/04/21 01:58:45;;;;;;;5.30;4.65;;;14.80;1.00;;;;;;5054158;28;20037;-83
2022/04/21 02:01:10;;;;;;;5.90;5.30;;;14.70;1.00;;;;;;5054686;28;20024;-83
2022/04/21 02:03:36;;;;;;;5.93;4.80;;;14.70;1.00;;;;;;5051064;28;20120;-83
2022/04/21 02:06:02;;;;;;;5.28;4.88;;;14.70;1.00;;;;;;5051748;28;20021;-83
2022/04/21 02:08:28;;;;;;;5.40;4.63;;;14.70;1.00;;;;;;5054570;28;20021;-83
2022/04/21 02:10:53;;;;;;;5.45;4.95;;;14.80;1.00;;;;;;5054406;28;20115;-83
2022/04/21 02:13:19;;;;;;;5.30;4.85;;;14.80;1.00;;;;;;5054230;28;20036;-83
2022/04/21 02:15:45;;;;;;;5.18;4.68;;;14.80;1.00;;;;;;5053098;28;20442;-84
2022/04/21 02:18:11;;;;;;;4.72;4.32;;;14.90;1.00;;;;;;5049819;28;20033;-83
2022/04/21 02:20:37;;;;;;;5.00;4.60;;;14.90;1.00;;;;;;5056298;28;20078;-83
2022/04/21 02:23:02;;;;;;;4.85;4.40;;;14.70;1.00;;;;;;5053964;28;20378;-83
2022/04/21 02:25:28;;;;;;;4.95;4.55;;;14.70;1.00;;;;;;5054237;28;20025;-83
2022/04/21 02:27:54;;;;;;;5.75;4.95;;;14.70;1.00;;;;;;5053910;28;20117;-83
2022/04/21 02:30:20;;;;;;;5.00;4.53;;;14.80;1.00;;;;;;5049924;28;20528;-83
2022/04/21 02:32:46;;;;;;;5.78;4.50;;;14.80;1.00;;;;;;5055112;28;20041;-83
2022/04/21 02:35:13;;;;;;;5.15;4.75;;;14.90;1.00;;;;;;5054542;28;20029;-83
2022/04/21 02:37:44;;;;;;;5.38;4.47;;;14.90;1.00;;;;;;5053678;28;20033;-83
2022/04/21 02:40:10;;;;;;;5.82;4.45;;;14.80;1.00;;;;;;5053726;28;20036;-83
2022/04/21 02:42:38;;;;;;;5.30;4.80;;;14.70;1.00;;;;;;5051137;28;20112;-83
2022/04/21 02:45:05;;;;;;;5.82;4.88;;;14.60;1.00;;;;;;5050677;28;20397;-83
2022/04/21 02:47:31;;;;;;;6.40;5.75;;;14.50;1.00;;;;;;5054392;28;20029;-83
2022/04/21 02:49:57;;;;;;;5.28;4.75;;;14.50;1.00;;;;;;5053477;28;20040;-84
2022/04/21 02:52:23;;;;;;;6.38;5.80;;;14.60;1.00;;;;;;5054005;28;20040;-84
2022/04/21 02:57:33;;;;;;;5.63;5.03;;;14.70;1.00;;;;;;5052188;28;20166;-83
2022/04/21 03:00:03;;;;;;;5.10;4.63;;;14.70;1.00;;;;;;5051152;28;20115;-83
2022/04/21 03:02:28;;;;;;;6.13;5.38;;;14.70;1.00;;;;;;5053887;28;20122;-83
2022/04/21 03:04:54;;;;;;;5.57;5.07;;;14.60;1.00;;;;;;5053622;28;20052;-83
2022/04/21 03:07:22;;;;;;;5.18;4.68;;;14.40;1.00;;;;;;5053762;28;20029;-84
2022/04/21 03:09:48;;;;;;;6.43;5.00;;;14.50;1.00;;;;;;5053381;28;20109;-84
2022/04/21 03:12:13;;;;;;;6.32;5.35;;;14.40;1.00;;;;;;5049591;28;20054;-83
2022/04/21 03:14:41;;;;;;;6.22;5.63;;;14.50;1.00;;;;;;5055076;28;20437;-84
2022/04/21 03:17:08;;;;;;;5.53;5.00;;;14.60;1.00;;;;;;5051929;28;20033;-84
2022/04/21 03:19:34;;;;;;;5.63;5.13;;;14.50;1.00;;;;;;5053662;28;20032;-84
2022/04/21 03:24:45;;;;;;;5.40;4.90;;;14.40;1.00;;;;;;5051905;28;20043;-83
2022/04/21 03:27:12;;;;;;;6.43;5.15;;;14.40;1.00;;;;;;5051258;28;20013;-83
2022/04/21 03:29:38;;;;;;;4.97;4.57;;;14.50;1.00;;;;;;5058666;28;20143;-83
2022/04/21 03:32:07;;;;;;;5.90;5.40;;;14.60;1.00;;;;;;5056992;28;20036;-83
2022/04/21 03:34:32;;;;;;;5.70;5.20;;;14.60;1.00;;;;;;5056852;28;20041;-83
2022/04/21 03:36:58;;;;;;;6.32;5.28;;;14.60;1.00;;;;;;5057132;28;20034;-83
2022/04/21 03:39:24;;;;;;;5.65;5.05;;;14.60;1.00;;;;;;5053570;28;20033;-84
2022/04/21 03:41:55;;;;;;;5.28;4.78;;;14.60;1.00;;;;;;5057455;28;20025;-83
2022/04/21 03:44:22;;;;;;;5.47;4.97;;;14.60;1.00;;;;;;5057873;28;20033;-83
2022/04/21 03:46:47;;;;;;;5.55;4.93;;;14.50;1.00;;;;;;5056886;28;20043;-83
2022/04/21 03:49:13;;;;;;;5.20;4.70;;;14.50;1.00;;;;;;5057502;28;20033;-83
2022/04/21 03:51:39;;;;;;;5.35;4.85;;;14.30;1.00;;;;;;5055486;28;20021;-83
2022/04/21 03:54:04;;;;;;;6.03;4.75;;;14.30;1.00;;;;;;5053504;28;20041;-83
2022/04/21 03:56:31;;;;;;;6.00;5.40;;;14.40;1.00;;;;;;5058573;28;20393;-83
2022/04/21 03:58:57;;;;;;;5.97;5.38;;;14.40;1.00;;;;;;5055927;28;20558;-84
2022/04/21 04:01:23;;;;;;;6.78;5.60;;;14.40;1.00;;;;;;5055095;28;20054;-83
2022/04/21 04:03:49;;;;;;;5.57;5.13;;;14.40;1.00;;;;;;5055017;28;20029;-83
2022/04/21 04:11:43;;;;;;;5.90;5.40;;;14.40;1.00;;;;;;5065869;28;20082;-83
2022/04/21 04:14:09;;;;;;;6.65;5.53;;;14.40;1.00;;;;;;5056382;28;20487;-84
2022/04/21 04:16:36;;;;;;;5.95;5.45;;;14.40;1.00;;;;;;5055950;28;20501;-83
2022/04/21 04:19:05;;;;;;;6.18;5.57;;;14.30;1.00;;;;;;5056555;28;20043;-83
2022/04/21 04:21:31;;;;;;;5.90;5.40;;;14.30;1.00;;;;;;5053785;28;20032;-83
2022/04/21 04:23:57;;;;;;;7.15;5.95;;;14.40;1.00;;;;;;5054980;28;20035;-83
2022/04/21 04:26:23;;;;;;;7.93;5.57;;;14.30;1.00;;;;;;5057410;28;20439;-83
2022/04/21 04:28:49;;;;;;;5.88;5.28;;;14.40;1.00;;;;;;5055891;28;20120;-83
2022/04/21 04:31:15;;;;;;;6.28;5.68;;;14.30;1.00;;;;;;5055810;28;20528;-83
2022/04/21 04:33:41;;;;;;;5.55;5.05;;;14.40;1.00;;;;;;5054893;28;20036;-84
2022/04/21 04:36:10;;;;;;;6.80;5.88;;;14.40;1.00;;;;;;5052299;28;20037;-83
2022/04/21 04:38:36;;;;;;;5.80;5.30;;;14.30;1.00;;;;;;5058163;28;20037;-83
2022/04/21 04:42:16;;;;;;;7.47;5.22;;;14.30;1.00;;;;;;5052733;28;20033;-84
2022/04/21 04:43:47;;;;;;;6.75;4.88;;;14.20;1.00;;;;;;5054198;28;20449;-84
2022/04/21 04:48:57;;;;;;;5.30;4.80;;;14.20;1.00;;;;;;5055684;28;20397;-84
2022/04/21 04:51:23;;;;;;;6.30;5.22;;;14.20;1.00;;;;;;5051461;28;20358;-83
2022/04/21 04:53:49;;;;;;;5.35;4.70;;;14.20;1.00;;;;;;5056035;28;20021;-83
2022/04/21 04:56:15;;;;;;;7.78;5.50;;;14.20;1.00;;;;;;5055707;28;20074;-83
2022/04/21 04:58:40;;;;;;;5.88;5.28;;;14.20;1.00;;;;;;5054337;28;20036;-83
2022/04/21 05:01:06;;;;;;;5.55;4.85;;;14.30;1.00;;;;;;5055218;28;20024;-83
2022/04/21 05:03:32;;;;;;;5.43;4.78;;;14.20;1.00;;;;;;5053283;28;20029;-83
2022/04/21 05:05:57;;;;;;;6.32;5.40;;;14.20;1.00;;;;;;5053782;28;20573;-84
2022/04/21 05:08:23;;;;;;;5.35;4.85;;;14.20;1.00;;;;;;5055584;28;20037;-84
2022/04/21 05:10:53;;;;;;;5.60;5.10;;;14.10;1.00;;;;;;5054735;28;20033;-83
2022/04/21 05:13:18;;;;;;;5.53;4.90;;;14.20;1.00;;;;;;5055129;28;20032;-83
2022/04/21 05:15:44;;;;;;;5.78;5.18;;;14.20;1.00;;;;;;5054794;28;20036;-84
2022/04/21 05:18:10;;;;;;;7.20;5.43;;;14.30;1.00;;;;;;5050686;28;20430;-84
2022/04/21 05:20:36;;;;;;;6.95;5.07;;;14.40;1.00;;;;;;5056122;28;20540;-83
2022/04/21 05:23:06;;;;;;;6.57;5.47;;;14.30;1.00;;;;;;5053168;28;20108;-83
2022/04/21 05:25:36;;;;;;;6.30;5.28;;;14.20;1.00;;;;;;5054439;28;20056;-83
2022/04/21 05:28:02;;;;;;;6.60;5.35;;;14.30;1.00;;;;;;5055115;28;20024;-82
2022/04/21 05:33:15;;;;;;;6.28;5.45;;;14.20;1.00;;;;;;5050226;28;20059;-82
2022/04/21 05:35:41;;;;;;;5.82;5.22;;;14.30;1.00;;;;;;5056330;28;20029;-82
2022/04/21 05:38:07;;;;;;;6.25;5.45;;;14.40;1.00;;;;;;5054550;28;20052;-81
2022/04/21 05:40:33;;;;;;;8.75;5.63;;;14.30;1.00;;;;;;5054939;28;20031;-85
2022/04/21 05:43:07;;;;;;;6.80;5.50;;;14.20;1.00;;;;;;5054465;28;20029;-86
2022/04/21 05:45:33;;;;;;;7.72;6.30;;;14.20;1.00;;;;;;5052370;28;20386;-85
2022/04/21 05:47:59;;;;;;;8.23;6.72;;;14.10;1.00;;;;;;5052325;28;20033;-85
2022/04/21 05:50:26;;;;;;;12.00;6.10;;;14.00;1.00;;;;;;5055589;28;20041;-84
2022/04/21 05:52:54;;;;;;;7.35;5.78;;;14.20;1.00;;;;;;5054650;28;20028;-85
2022/04/21 05:55:20;;;;;;;7.18;5.57;;;14.30;1.00;;;;;;5054024;28;20029;-86
2022/04/21 05:57:45;;;;;;;9.30;5.80;;;14.30;1.00;;;;;;5052724;28;20118;-85
2022/04/21 06:00:11;;;;;;;8.40;5.70;;;14.30;1.00;;;;;;5049960;28;20061;-86
2022/04/21 06:02:37;;;;;;;7.22;5.82;;;14.40;1.00;;;;;;5055968;28;20468;-85
2022/04/21 06:05:05;;;;;;;7.78;5.82;;;14.50;1.00;;;;;;5054474;28;20127;-86
2022/04/21 06:07:30;;;;;;;8.65;5.95;;;14.60;1.00;;;;;;5054664;28;20473;-86
2022/04/21 06:09:56;;;;;;;6.22;5.35;;;14.60;1.00;;;;;;5054490;28;20013;-86
2022/04/21 06:12:25;;;;;;;9.10;5.80;;;14.70;1.00;;;;;;5050883;28;20132;-85
2022/04/21 06:14:52;;;;;;;9.52;5.60;;;14.80;1.00;;;;;;5054682;28;20017;-85
2022/04/21 06:17:18;;;;;;;6.82;5.57;;;14.80;1.00;;;;;;5087518;28;20175;-85
2022/04/21 06:19:43;;;;;;;7.30;5.90;;;14.70;1.00;;;;;;5054271;28;20104;-86
2022/04/21 06:22:09;;;;;;;7.88;5.47;;;14.70;1.00;;;;;;5054240;28;20175;-85
2022/04/21 06:24:35;;;;;;;6.82;5.40;;;14.80;1.00;;;;;;5052182;28;20033;-85
2022/04/21 06:27:03;;;;;;;7.65;5.95;;;14.90;1.00;;;;;;5051628;28;20033;-86
2022/04/21 06:29:29;;;;;;;6.97;6.28;;;15.00;1.00;;;;;;5056349;28;20033;-85
2022/04/21 06:31:55;;;;;;;11.10;6.63;;;14.80;1.00;;;;;;5054186;28;20025;-85
2022/04/21 06:34:22;;;;;;;8.43;6.47;;;14.60;1.00;;;;;;5053889;28;20164;-85
2022/04/21 06:36:48;;;;;;;13.02;6.38;;;14.50;1.00;;;;;;5052345;28;20024;-85
2022/04/21 06:39:14;;;;;;;6.65;5.68;;;14.40;1.00;;;;;;5032977;28;20045;-85
2022/04/21 06:41:40;;;;;;;7.40;6.57;;;14.50;1.00;;;;;;5055861;28;20366;-86
2022/04/21 06:49:34;;;;;;;12.77;7.10;;;14.60;1.00;;;;;;5054027;28;20044;-86
2022/04/21 06:52:00;;;;;;;10.30;6.50;;;14.70;1.00;;;;;;5053524;28;20020;-86
2022/04/21 06:54:26;;;;;;;8.73;7.20;;;14.70;1.00;;;;;;5049611;28;20132;-83
2022/04/21 06:56:51;;;;;;;8.43;6.55;;;14.80;1.00;;;;;;5053919;28;20083;-84
2022/04/21 06:59:17;;;;;;;9.40;6.38;;;14.90;1.00;;;;;;5054252;28;20116;-86
2022/04/21 07:01:46;;;;;;;9.80;6.72;;;15.00;1.00;;;;;;5056972;28;20025;-83
2022/04/21 07:04:13;;;;;;;9.88;7.30;;;15.10;1.00;;;;;;5057937;28;20033;-84
2022/04/21 07:06:39;;;;;;;10.70;6.45;;;15.00;1.00;;;;;;5056125;28;20447;-83
2022/04/21 07:09:04;;;;;;;7.93;6.50;;;15.10;1.00;;;;;;5054756;28;20029;-84
2022/04/21 07:11:31;;;;;;;9.13;6.85;;;15.10;1.00;;;;;;5060104;28;20064;-83
2022/04/21 07:13:57;;;;;;;11.20;6.97;;;15.10;1.00;;;;;;5057823;28;20037;-83
2022/04/21 07:16:23;;;;;;;8.82;6.40;;;15.00;1.00;;;;;;5056621;28;20094;-83
2022/04/21 07:18:48;;;;;;;8.48;6.65;;;15.10;1.00;;;;;;5055952;28;20032;-83
2022/04/21 07:21:16;;;;;;;7.95;6.53;;;15.30;1.00;;;;;;5037121;28;20029;-83
2022/04/21 07:23:42;;;;;;;10.70;6.90;;;15.30;1.00;;;;;;5059632;28;20029;-83
2022/04/21 07:26:08;;;;;;;8.50;6.72;;;15.50;1.00;;;;;;5057732;28;20052;-83
2022/04/21 07:28:33;;;;;;;10.13;6.97;;;15.50;1.00;;;;;;5054864;28;20079;-83
2022/04/21 07:31:00;;;;;;;9.20;7.05;;;15.40;1.00;;;;;;5057379;28;20031;-83
2022/04/21 07:33:25;;;;;;;8.80;7.22;;;15.50;1.00;;;;;;5054279;28;20051;-82
2022/04/21 07:35:51;;;;;;;10.48;7.10;;;15.50;1.00;;;;;;5057245;28;20021;-83
2022/04/21 07:38:17;;;;;;;6.50;5.90;;;15.50;1.00;;;;;;5058354;28;20485;-83
2022/04/21 07:40:42;;;;;;;6.97;5.63;;;15.40;1.00;;;;;;5057322;28;20031;-84
2022/04/21 07:43:08;;;;;;;6.45;5.40;;;15.50;1.00;;;;;;5055919;28;20102;-83
2022/04/21 07:45:35;;;;;;;6.07;5.45;;;15.60;1.00;;;;;;5055120;28;20557;-83
2022/04/21 07:48:01;;;;;;;6.07;5.47;;;15.60;1.00;;;;;;5055124;28;20029;-83
2022/04/21 07:50:27;;;;;;;6.30;5.53;;;15.70;1.00;;;;;;5056605;28;20067;-83
2022/04/21 07:55:36;;;;;;;6.38;5.72;;;15.80;1.00;;;;;;5055656;28;20044;-83
2022/04/21 07:58:02;;;;;;;6.43;5.40;;;15.80;1.00;;;;;;5055380;28;20021;-83
2022/04/21 08:00:28;;;;;;;6.28;5.68;;;15.80;1.00;;;;;;5053945;28;20408;-83
2022/04/21 08:02:54;;;;;;;7.07;6.10;;;15.90;1.00;;;;;;5056599;28;20146;-83
2022/04/21 08:05:21;;;;;;;6.57;5.80;;;16.00;1.00;;;;;;5057372;28;20052;-83
2022/04/21 08:07:48;;;;;;;6.75;6.05;;;16.20;1.00;;;;;;5057249;28;20036;-83
2022/04/21 08:10:15;;;;;;;7.22;6.15;;;16.30;1.00;;;;;;5056106;28;20025;-83
2022/04/21 08:12:51;;;;;;;6.78;5.72;;;16.30;1.00;;;;;;5055265;28;20097;-83
2022/04/21 08:15:28;;;;;;;6.80;5.65;;;16.50;1.00;;;;;;5036663;28;20040;-83
2022/04/21 08:18:01;;;;;;;6.72;6.13;;;16.50;1.00;;;;;;5066865;28;20112;-83
2022/04/21 08:20:28;;;;;;;6.55;5.47;;;16.80;1.00;;;;;;5056074;28;20029;-83
2022/04/21 08:22:54;;;;;;;5.10;4.70;;;16.80;1.00;;;;;;5056367;28;20520;-83
2022/04/21 08:33:33;;;;;;;7.30;5.60;;;17.40;1.00;;;;;;5038875;28;20092;-83
2022/04/21 08:35:59;;;;;;;6.15;5.55;;;17.40;1.00;;;;;;5054622;28;20496;-83
2022/04/21 08:38:27;;;;;;;5.50;5.00;;;17.40;1.00;;;;;;5055774;28;20501;-83
2022/04/21 08:40:57;;;;;;;5.80;5.00;;;17.40;1.00;;;;;;5056517;28;20050;-83
2022/04/21 08:43:25;;;;;;;6.28;5.13;;;17.50;1.00;;;;;;5056098;28;20039;-84
2022/04/21 08:45:51;;;;;;;5.78;5.28;;;17.80;1.00;;;;;;5056113;28;20056;-83
2022/04/21 08:48:18;;;;;;;5.93;5.30;;;17.60;1.00;;;;;;5051417;28;20030;-83
2022/04/21 08:50:48;;;;;;;6.45;5.60;;;17.60;1.00;;;;;;5065462;28;20030;-83
2022/04/21 08:53:17;;;;;;;8.02;5.40;;;17.60;1.00;;;;;;5056450;28;20029;-83
2022/04/21 08:55:44;;;;;;;6.22;5.63;;;17.80;1.00;;;;;;5055947;28;20033;-83
2022/04/21 08:58:11;;;;;;;6.30;5.45;;;17.70;1.00;;;;;;5055643;28;20120;-83
2022/04/21 09:00:37;;;;;;;8.15;5.70;;;17.70;1.00;;;;;;5054182;28;20039;-83
2022/04/21 09:03:07;;;;;;;6.68;5.80;;;17.90;1.00;;;;;;5052807;28;20021;-83
2022/04/21 09:05:33;;;;;;;7.10;6.40;;;18.10;1.00;;;;;;5058191;28;20448;-84
2022/04/21 09:08:01;;;;;;;6.97;6.28;;;18.00;1.00;;;;;;5055728;28;20547;-84
2022/04/21 09:10:36;;;;;;;6.63;6.13;;;17.90;1.00;;;;;;5055494;28;20515;-84
2022/04/21 09:13:03;;;;;;;6.75;6.15;;;17.90;1.00;;;;;;5054505;28;20020;-84
2022/04/21 09:15:31;;;;;;;7.30;5.97;;;17.70;1.00;;;;;;5050109;28;20053;-83
2022/04/21 09:17:59;;;;;;;7.03;6.43;;;17.60;1.00;;;;;;5053953;28;20033;-84
2022/04/21 09:20:29;;;;;;;6.28;5.47;;;17.70;1.00;;;;;;5057597;28;20120;-83
2022/04/21 09:22:59;;;;;;;7.85;5.57;;;17.70;1.00;;;;;;5055259;28;20037;-83
2022/04/21 09:25:26;;;;;;;6.78;6.18;;;18.10;1.00;;;;;;5054320;28;20507;-84
2022/04/21 09:27:53;;;;;;;9.20;6.40;;;18.20;1.00;;;;;;5055232;28;20017;-83
2022/04/21 09:30:19;;;;;;;6.60;5.93;;;18.60;1.00;;;;;;5051070;28;20286;-83
2022/04/21 09:32:52;;;;;;;6.53;5.93;;;18.80;1.00;;;;;;5056567;28;20045;-83
2022/04/21 09:35:18;;;;;;;6.32;5.75;;;18.80;1.00;;;;;;5054557;28;20130;-83
2022/04/21 09:37:49;;;;;;;6.88;6.15;;;19.00;1.00;;;;;;5054975;28;20033;-83
2022/04/21 09:40:16;;;;;;;6.85;6.25;;;18.90;1.00;;;;;;5054933;28;20075;-83
2022/04/21 09:42:42;;;;;;;7.05;5.68;;;18.60;1.00;;;;;;5054396;28;20082;-83
2022/04/21 09:47:54;;;;;;;6.93;5.88;;;19.00;1.00;;;;;;5065370;28;20035;-83
2022/04/21 09:50:21;;;;;;;6.72;6.05;;;19.10;1.00;;;;;;5055919;28;20025;-83
2022/04/21 09:52:48;;;;;;;9.50;5.95;;;18.80;1.00;;;;;;5053284;28;20021;-83
2022/04/21 09:55:34;;;;;;;6.85;6.15;;;18.60;1.00;;;;;;5053233;28;20045;-83
2022/04/21 09:58:06;;;;;;;6.97;5.82;;;18.60;1.00;;;;;;5054516;28;20508;-84
2022/04/21 10:00:34;;;;;;;6.93;5.97;;;18.40;1.00;;;;;;5052058;28;20021;-84
2022/04/21 10:03:02;;;;;;;6.97;6.05;;;18.50;1.00;;;;;;5053116;28;20056;-84
2022/04/21 10:05:31;;;;;;;8.13;7.25;;;18.30;1.00;;;;;;5054570;28;20385;-83
2022/04/21 10:08:00;;;;;;;8.52;6.53;;;18.30;1.00;;;;;;5054530;28;20504;-83
2022/04/21 10:10:28;;;;;;;6.90;6.30;;;18.30;1.00;;;;;;5054507;28;20103;-83
2022/04/21 10:12:59;;;;;;;8.65;5.72;;;18.50;1.00;;;;;;5054932;28;20032;-83
2022/04/21 10:15:27;;;;;;;7.38;6.05;;;18.70;1.00;;;;;;5050887;28;20029;-84
2022/04/21 10:17:52;;;;;;;6.50;5.93;;;19.00;1.00;;;;;;5054281;28;20033;-83
2022/04/21 10:20:24;;;;;;;8.50;6.70;;;19.30;1.00;;;;;;5055117;28;20379;-83
2022/04/21 10:22:52;;;;;;;7.75;7.10;;;19.90;1.00;;;;;;5054306;28;20018;-84
2022/04/21 10:25:19;;;;;;;6.88;6.18;;;20.00;1.00;;;;;;5054678;28;20505;-83
2022/04/21 10:27:47;;;;;;;7.18;6.45;;;20.20;1.00;;;;;;5053824;28;20056;-84
2022/04/21 10:30:14;;;;;;;8.07;7.13;;;20.40;1.00;;;;;;5049169;28;20029;-84
2022/04/21 10:32:46;;;;;;;8.70;7.70;;;20.40;1.00;;;;;;5055567;28;20056;-83
2022/04/21 10:35:27;;;;;;;8.07;6.88;;;20.30;1.00;;;;;;5052521;28;20383;-84
2022/04/21 10:38:14;;;;;;;8.73;6.82;;;20.10;1.00;;;;;;5053912;28;20493;-84
2022/04/21 10:41:10;;;;;;;7.53;6.82;;;20.00;1.00;;;;;;5054354;28;20021;-83
2022/04/21 10:43:48;;;;;;;10.10;7.30;;;20.30;1.00;;;;;;5054172;28;20045;-84
2022/04/21 10:46:19;;;;;;;7.90;7.10;;;20.10;1.00;;;;;;5054214;28;20063;-83
2022/04/21 10:48:44;;;;;;;8.15;7.45;;;20.30;1.00;;;;;;5053493;28;20029;-83
2022/04/21 10:57:11;;;;;;;7.97;7.15;;;20.20;1.00;;;;;;5050367;28;20045;-84
2022/04/21 10:57:31;;;;;;;7.30;6.68;;;20.10;1.00;;;;;;5036709;28;20396;-84
2022/04/21 11:00:05;;;;;;;8.05;7.30;;;20.10;1.00;;;;;;5052689;28;20064;-84
2022/04/21 11:02:44;;;;;;;7.55;6.85;;;20.20;1.00;;;;;;5054336;28;20098;-84
2022/04/21 11:05:22;;;;;;;7.43;6.68;;;20.40;1.00;;;;;;5054118;28;20124;-84
2022/04/21 11:07:54;;;;;;;8.27;7.45;;;21.10;1.00;;;;;;5054060;28;20128;-83
2022/04/21 11:10:38;;;;;;;9.45;8.55;;;21.70;1.00;;;;;;5052330;28;20064;-84
2022/04/21 11:13:08;;;;;;;9.63;8.73;;;21.70;1.00;;;;;;5051917;28;20025;-83
2022/04/21 11:15:44;;;;;;;9.55;8.25;;;21.20;1.00;;;;;;5051846;28;20048;-84
2022/04/21 11:18:29;;;;;;;9.05;8.25;;;21.00;1.00;;;;;;5050067;28;20040;-84
2022/04/21 11:21:26;;;;;;;10.88;8.25;;;21.10;1.00;;;;;;5064314;28;20059;-83
2022/04/21 11:23:51;;;;;;;9.20;8.30;;;21.20;1.00;;;;;;5063677;28;20098;-84
2022/04/21 11:26:24;;;;;;;7.78;7.07;;;21.00;1.00;;;;;;5054444;28;20841;-84
2022/04/21 11:28:50;;;;;;;8.40;7.63;;;21.10;1.00;;;;;;5053816;28;20032;-84
2022/04/21 11:31:20;;;;;;;10.90;7.40;;;21.10;1.00;;;;;;5053734;28;20033;-84
2022/04/21 11:33:46;;;;;;;8.20;7.40;;;21.10;1.00;;;;;;5052830;28;20385;-84
2022/04/21 11:36:14;;;;;;;9.93;7.80;;;21.10;1.00;;;;;;5049674;28;20017;-84
2022/04/21 11:38:45;;;;;;;9.00;8.30;;;21.10;1.00;;;;;;5055343;28;20102;-84
2022/04/21 11:41:12;;;;;;;10.18;9.20;;;21.40;1.00;;;;;;5053527;28;20037;-84
2022/04/21 11:43:48;;;;;;;11.85;8.90;;;21.30;1.00;;;;;;5053505;28;20436;-84
2022/04/21 11:46:14;;;;;;;10.20;9.13;;;21.20;1.00;;;;;;5053736;28;20056;-83
2022/04/21 11:48:41;;;;;;;11.82;9.10;;;21.50;1.00;;;;;;5053344;28;20444;-84
2022/04/21 11:51:11;;;;;;;9.73;8.90;;;21.70;1.00;;;;;;5053847;28;20104;-84
2022/04/21 11:53:40;;;;;;;9.27;8.43;;;22.20;1.00;;;;;;5057966;28;20079;-84
2022/04/21 11:56:08;;;;;;;8.82;7.90;;;22.40;1.00;;;;;;5056847;28;20033;-83
2022/04/21 11:58:44;;;;;;;8.48;7.68;;;22.20;1.00;;;;;;5056687;28;20041;-84
2022/04/21 12:06:50;;;;;;;7.82;7.10;;;24.60;1.00;;;;;;5057136;28;20499;-84
2022/04/21 12:09:21;;;;;;;8.10;7.28;;;25.40;1.00;;;;;;5036623;28;20025;-84
2022/04/21 12:11:50;;;;;;;7.53;6.68;;;25.10;1.00;;;;;;5066236;28;20060;-84
2022/04/21 12:14:17;;;;;;;7.03;6.43;;;23.70;1.00;;;;;;5055908;28;20032;-84
2022/04/21 12:16:52;;;;;;;7.85;6.65;;;23.50;1.00;;;;;;5056702;28;20025;-84
2022/04/21 12:19:39;;;;;;;7.40;6.80;;;23.10;1.00;;;;;;5056480;28;20044;-84
2022/04/21 12:22:16;;;;;;;9.75;6.97;;;24.40;1.00;;;;;;5056163;28;20055;-84
2022/04/21 12:24:47;;;;;;;7.28;6.57;;;23.90;1.00;;;;;;5055330;28;20385;-84
2022/04/21 12:27:14;;;;;;;8.55;7.07;;;22.90;1.00;;;;;;5052245;28;20056;-84
2022/04/21 12:29:51;;;;;;;6.82;6.18;;;22.60;1.00;;;;;;5057977;28;20021;-84
2022/04/21 12:32:20;;;;;;;7.10;6.50;;;22.50;1.00;;;;;;5055553;28;20029;-84
2022/04/21 12:34:45;;;;;;;6.95;6.22;;;22.50;1.00;;;;;;5056013;28;20182;-83
2022/04/21 12:37:11;;;;;;;8.60;6.85;;;22.30;1.00;;;;;;5056316;28;20079;-84
2022/04/21 12:39:37;;;;;;;7.57;6.63;;;22.40;1.00;;;;;;5054434;28;20115;-82
2022/04/21 12:42:03;;;;;;;8.52;6.93;;;21.90;1.00;;;;;;5053661;28;20021;-83
2022/04/21 12:44:29;;;;;;;6.72;5.93;;;21.90;1.00;;;;;;5058127;28;20052;-83
2022/04/21 12:47:03;;;;;;;6.05;5.53;;;22.00;1.00;;;;;;5056020;28;20408;-83
2022/04/21 12:50:01;;;;;;;7.20;5.78;;;22.10;1.00;;;;;;5055750;28;20044;-84
2022/04/21 12:52:34;;;;;;;9.20;5.68;;;21.90;1.00;;;;;;5055974;28;20619;-84
2022/04/21 12:55:01;;;;;;;8.40;5.50;;;21.80;1.00;;;;;;5055789;28;20481;-84
2022/04/21 12:57:27;;;;;;;6.72;5.32;;;21.90;1.00;;;;;;5052905;28;20032;-84
2022/04/21 12:59:54;;;;;;;5.70;5.20;;;22.00;1.00;;;;;;5055893;28;20055;-83
2022/04/21 13:02:20;;;;;;;5.00;4.50;;;22.30;1.00;;;;;;5056979;28;20405;-84
2022/04/21 13:04:46;;;;;;;5.68;5.18;;;22.20;1.00;;;;;;5055645;28;20032;-84
2022/04/21 13:07:12;;;;;;;6.82;5.57;;;22.50;1.00;;;;;;5054255;28;20029;-83
2022/04/21 13:09:37;;;;;;;8.00;5.07;;;22.30;1.00;;;;;;5052090;28;20026;-83
2022/04/21 13:12:03;;;;;;;6.40;4.50;;;22.40;1.00;;;;;;5053215;28;20461;-84
2022/04/21 13:14:29;;;;;;;6.28;4.80;;;22.60;1.00;;;;;;5057563;28;20382;-83
2022/04/21 13:16:55;;;;;;;5.95;4.35;;;22.90;1.00;;;;;;5055793;28;20025;-83
2022/04/21 13:19:21;;;;;;;8.57;4.60;;;23.10;1.00;;;;;;5055049;28;20045;-84
2022/04/21 13:21:53;;;;;;;7.38;4.07;;;23.00;1.00;;;;;;5055395;28;20025;-83
2022/04/21 13:24:19;;;;;;;4.57;4.15;;;22.70;1.00;;;;;;5034970;28;20025;-83
2022/04/21 13:26:45;;;;;;;4.75;4.25;;;22.90;1.00;;;;;;5057212;28;20029;-84
2022/04/21 13:29:11;;;;;;;5.13;4.63;;;22.70;1.00;;;;;;5055140;28;20575;-83
2022/04/21 13:34:21;;;;;;;4.97;4.47;;;23.30;1.00;;;;;;5054932;28;20102;-84
2022/04/21 13:36:47;;;;;;;7.13;4.47;;;23.10;1.00;;;;;;5054475;28;20051;-83
2022/04/21 13:39:12;;;;;;;5.95;4.60;;;22.90;1.00;;;;;;5051160;28;20036;-84
2022/04/21 13:41:38;;;;;;;4.75;4.20;;;22.70;1.00;;;;;;5056664;28;20053;-84
2022/04/21 13:44:04;;;;;;;7.07;3.90;;;22.20;1.00;;;;;;5055462;28;20041;-84
2022/04/21 13:46:30;;;;;;;6.38;4.30;;;22.50;1.00;;;;;;5053333;28;20079;-83
2022/04/21 13:48:56;;;;;;;4.70;4.18;;;22.70;1.00;;;;;;5053334;28;20107;-84
2022/04/21 13:51:24;;;;;;;6.03;4.47;;;22.70;1.00;;;;;;5051036;28;20025;-83
2022/04/21 13:53:50;;;;;;;4.45;4.05;;;22.50;1.00;;;;;;5055408;28;20036;-84